Lewiston, ID (83501)

2:22 PM PST on December 21, 2014 (GMT -0800)
Hepton Lane | Change Station
CLOSE
Current Station
Personal Weather Station
Location: Lewiston, ID
Elevation: 1358 ft
Nearby Weather Stations
Active Advisory: Wind Advisory Active Notice: Record Report

Elev 1358 ft 46.40 °N, 116.93 °W | Updated 21 seconds ago

Overcast
Overcast
53.6 °F
Feels Like 53.6 °F
N
4.5
Wind Variable Wind from West
Gusts 4.9 mph

Today
High -- | Low -- °F
--% Chance of Precip.
Yesterday
High -- | Low -- °F
Precip. -- in
7:28 AM 4:03 PM
Waning Crescent, 0% visible
Pressure 29.88 in
Visibility 10.0 miles
Clouds Clear
Dew Point 37 °F
Humidity 53%
Rainfall 0.02 in
Snow Depth Not available.
UV 1.0 out of 12
Pollen .10 out of 12
Air Quality Not available.
Flu Activity Not available.
METAR KLWS 212156Z 27013KT 10SM -RA CLR 12/03 A2988 RMK AO2 PRESRR SLP119 P0000 T01170028

More Conditions Fewer Conditions

Pressure 29.88 in
Visibility 10.0 miles
Clouds Clear
Dew Point 37 °F
Humidity 53%
Rainfall 0.02 in
Snow Depth Not available.
UV 1.0 out of 12
Pollen .10 out of 12
Air Quality Not available.
Flu Activity Not available.
METAR KLWS 212156Z 27013KT 10SM -RA CLR 12/03 A2988 RMK AO2 PRESRR SLP119 P0000 T01170028

More Conditions Fewer Conditions

10-Day Weather Forecast

Almanac

Astronomy

Dec. 21, 2014 Rise Set
Actual Time
Civil Twilight
Nautical Twilight
Astronomical Twilight
Moon
Length of Visible Light
Length of Day
Tomorrow will be .
, % of the Moon is Illuminated

Today's Extremes

State Highs State Lows

Community

WunderPhotos

Upload Photos

1,779,499 photos uploaded!

WunderBlogs® & News

Nearby

Air Quality

  Air Quality AQ Index Pollutant
Not available.

Snow Depth

Station Depth Elevation

Earthquake Activity

City Distance Mag. Time & Date
Minimum magnitude displayed is 2.5.

Coastal Water Temperatures

Place Temperature

Nearby Weather Stations